sensor_id;sensor_type;location;lat;lon;timestamp;P1;durP1;ratioP1;P2;durP2;ratioP2
19887;SDS011;10106;51.332;12.336;2023-01-08T00:02:07;5.80;;;4.10;;
19887;SDS011;10106;51.332;12.336;2023-01-08T00:04:34;5.97;;;3.73;;
19887;SDS011;10106;51.332;12.336;2023-01-08T00:06:59;5.87;;;3.63;;
19887;SDS011;10106;51.332;12.336;2023-01-08T00:09:25;6.90;;;3.80;;
19887;SDS011;10106;51.332;12.336;2023-01-08T00:11:51;4.63;;;3.20;;
19887;SDS011;10106;51.332;12.336;2023-01-08T00:14:17;6.00;;;3.90;;
19887;SDS011;10106;51.332;12.336;2023-01-08T00:16:43;6.80;;;3.97;;
19887;SDS011;10106;51.332;12.336;2023-01-08T00:19:10;4.07;;;3.33;;
19887;SDS011;10106;51.332;12.336;2023-01-08T00:21:36;5.40;;;3.57;;
19887;SDS011;10106;51.332;12.336;2023-01-08T00:24:01;7.40;;;4.80;;
19887;SDS011;10106;51.332;12.336;2023-01-08T00:26:28;6.87;;;4.07;;
19887;SDS011;10106;51.332;12.336;2023-01-08T00:28:53;8.67;;;4.90;;
19887;SDS011;10106;51.332;12.336;2023-01-08T00:31:19;4.80;;;3.90;;
19887;SDS011;10106;51.332;12.336;2023-01-08T00:33:45;5.90;;;3.70;;
19887;SDS011;10106;51.332;12.336;2023-01-08T00:36:12;4.43;;;3.63;;
19887;SDS011;10106;51.332;12.336;2023-01-08T00:38:39;5.87;;;3.67;;
19887;SDS011;10106;51.332;12.336;2023-01-08T00:41:05;4.30;;;3.37;;
19887;SDS011;10106;51.332;12.336;2023-01-08T00:43:30;4.97;;;4.10;;
19887;SDS011;10106;51.332;12.336;2023-01-08T00:45:56;5.00;;;4.23;;
19887;SDS011;10106;51.332;12.336;2023-01-08T00:48:22;4.23;;;3.50;;
19887;SDS011;10106;51.332;12.336;2023-01-08T00:50:49;7.77;;;4.27;;
19887;SDS011;10106;51.332;12.336;2023-01-08T00:53:16;10.27;;;5.30;;
19887;SDS011;10106;51.332;12.336;2023-01-08T00:55:42;22.80;;;4.80;;
19887;SDS011;10106;51.332;12.336;2023-01-08T00:58:08;5.03;;;4.13;;
19887;SDS011;10106;51.332;12.336;2023-01-08T01:00:33;8.07;;;4.60;;
19887;SDS011;10106;51.332;12.336;2023-01-08T01:02:59;4.03;;;3.33;;
19887;SDS011;10106;51.332;12.336;2023-01-08T01:05:25;6.63;;;3.90;;
19887;SDS011;10106;51.332;12.336;2023-01-08T01:07:50;6.87;;;3.97;;
19887;SDS011;10106;51.332;12.336;2023-01-08T01:10:16;4.37;;;3.93;;
19887;SDS011;10106;51.332;12.336;2023-01-08T01:12:42;5.67;;;3.77;;
19887;SDS011;10106;51.332;12.336;2023-01-08T01:15:09;4.00;;;3.47;;
19887;SDS011;10106;51.332;12.336;2023-01-08T01:17:38;6.13;;;4.07;;
19887;SDS011;10106;51.332;12.336;2023-01-08T01:20:05;6.27;;;4.03;;
19887;SDS011;10106;51.332;12.336;2023-01-08T01:22:31;5.80;;;3.90;;
19887;SDS011;10106;51.332;12.336;2023-01-08T01:24:57;4.70;;;4.00;;
19887;SDS011;10106;51.332;12.336;2023-01-08T01:27:24;6.90;;;4.50;;
19887;SDS011;10106;51.332;12.336;2023-01-08T01:29:50;6.80;;;4.30;;
19887;SDS011;10106;51.332;12.336;2023-01-08T01:32:16;5.60;;;4.00;;
19887;SDS011;10106;51.332;12.336;2023-01-08T01:34:42;6.57;;;4.50;;
19887;SDS011;10106;51.332;12.336;2023-01-08T01:37:08;4.50;;;3.47;;
19887;SDS011;10106;51.332;12.336;2023-01-08T01:39:38;4.50;;;3.47;;
19887;SDS011;10106;51.332;12.336;2023-01-08T01:42:04;5.03;;;4.00;;
19887;SDS011;10106;51.332;12.336;2023-01-08T01:44:48;7.27;;;3.97;;
19887;SDS011;10106;51.332;12.336;2023-01-08T01:47:21;7.23;;;3.80;;
19887;SDS011;10106;51.332;12.336;2023-01-08T01:52:38;4.73;;;3.53;;
19887;SDS011;10106;51.332;12.336;2023-01-08T01:55:07;7.37;;;4.60;;
19887;SDS011;10106;51.332;12.336;2023-01-08T01:57:38;7.27;;;4.30;;
19887;SDS011;10106;51.332;12.336;2023-01-08T02:00:06;4.83;;;3.53;;
19887;SDS011;10106;51.332;12.336;2023-01-08T02:02:33;5.07;;;3.37;;
19887;SDS011;10106;51.332;12.336;2023-01-08T02:04:59;5.27;;;3.73;;
19887;SDS011;10106;51.332;12.336;2023-01-08T02:12:56;6.00;;;3.97;;
19887;SDS011;10106;51.332;12.336;2023-01-08T02:15:50;6.27;;;4.20;;
19887;SDS011;10106;51.332;12.336;2023-01-08T02:18:43;5.77;;;3.17;;
19887;SDS011;10106;51.332;12.336;2023-01-08T02:21:15;4.80;;;3.27;;
19887;SDS011;10106;51.332;12.336;2023-01-08T02:24:19;4.53;;;3.03;;
19887;SDS011;10106;51.332;12.336;2023-01-08T02:26:54;4.30;;;3.50;;
19887;SDS011;10106;51.332;12.336;2023-01-08T02:29:23;5.07;;;3.40;;
19887;SDS011;10106;51.332;12.336;2023-01-08T02:31:52;7.10;;;3.30;;
19887;SDS011;10106;51.332;12.336;2023-01-08T02:34:18;5.53;;;3.93;;
19887;SDS011;10106;51.332;12.336;2023-01-08T02:36:44;5.07;;;3.20;;
19887;SDS011;10106;51.332;12.336;2023-01-08T02:50:42;5.80;;;3.47;;
19887;SDS011;10106;51.332;12.336;2023-01-08T02:53:24;5.73;;;3.63;;
19887;SDS011;10106;51.332;12.336;2023-01-08T02:55:54;6.70;;;3.60;;
19887;SDS011;10106;51.332;12.336;2023-01-08T02:58:29;3.20;;;2.60;;
19887;SDS011;10106;51.332;12.336;2023-01-08T03:00:57;3.97;;;2.87;;
19887;SDS011;10106;51.332;12.336;2023-01-08T03:03:26;3.60;;;2.57;;
19887;SDS011;10106;51.332;12.336;2023-01-08T03:05:59;4.73;;;3.00;;
19887;SDS011;10106;51.332;12.336;2023-01-08T03:08:27;2.80;;;2.60;;
19887;SDS011;10106;51.332;12.336;2023-01-08T03:10:57;4.20;;;2.93;;
19887;SDS011;10106;51.332;12.336;2023-01-08T03:13:35;4.33;;;3.10;;
19887;SDS011;10106;51.332;12.336;2023-01-08T03:16:22;3.63;;;2.33;;
19887;SDS011;10106;51.332;12.336;2023-01-08T03:18:57;3.47;;;2.50;;
19887;SDS011;10106;51.332;12.336;2023-01-08T03:21:30;3.23;;;2.37;;
19887;SDS011;10106;51.332;12.336;2023-01-08T03:23:57;2.20;;;1.97;;
19887;SDS011;10106;51.332;12.336;2023-01-08T03:26:24;2.53;;;2.23;;
19887;SDS011;10106;51.332;12.336;2023-01-08T03:28:51;5.77;;;2.67;;
19887;SDS011;10106;51.332;12.336;2023-01-08T03:31:18;5.67;;;3.03;;
19887;SDS011;10106;51.332;12.336;2023-01-08T03:33:45;3.20;;;2.40;;
19887;SDS011;10106;51.332;12.336;2023-01-08T03:36:12;3.37;;;2.13;;
19887;SDS011;10106;51.332;12.336;2023-01-08T03:39:04;5.70;;;3.20;;
19887;SDS011;10106;51.332;12.336;2023-01-08T03:41:31;2.73;;;2.00;;
19887;SDS011;10106;51.332;12.336;2023-01-08T03:44:00;2.50;;;2.30;;
19887;SDS011;10106;51.332;12.336;2023-01-08T03:46:34;3.57;;;2.90;;
19887;SDS011;10106;51.332;12.336;2023-01-08T03:49:04;3.33;;;2.50;;
19887;SDS011;10106;51.332;12.336;2023-01-08T03:54:11;2.63;;;2.23;;
19887;SDS011;10106;51.332;12.336;2023-01-08T03:56:42;4.47;;;3.00;;
19887;SDS011;10106;51.332;12.336;2023-01-08T03:59:12;2.33;;;2.07;;
19887;SDS011;10106;51.332;12.336;2023-01-08T04:01:38;2.97;;;2.00;;
19887;SDS011;10106;51.332;12.336;2023-01-08T04:04:05;3.43;;;2.57;;
19887;SDS011;10106;51.332;12.336;2023-01-08T04:06:31;2.50;;;2.03;;
19887;SDS011;10106;51.332;12.336;2023-01-08T04:08:57;2.03;;;1.70;;
19887;SDS011;10106;51.332;12.336;2023-01-08T04:11:23;2.67;;;2.47;;
19887;SDS011;10106;51.332;12.336;2023-01-08T04:13:48;4.50;;;2.37;;
19887;SDS011;10106;51.332;12.336;2023-01-08T04:16:14;3.77;;;2.57;;
19887;SDS011;10106;51.332;12.336;2023-01-08T04:18:40;1.97;;;1.87;;
19887;SDS011;10106;51.332;12.336;2023-01-08T04:21:05;4.00;;;2.50;;
19887;SDS011;10106;51.332;12.336;2023-01-08T04:23:31;3.60;;;2.27;;
19887;SDS011;10106;51.332;12.336;2023-01-08T04:25:57;3.23;;;2.60;;
19887;SDS011;10106;51.332;12.336;2023-01-08T04:28:22;3.30;;;2.57;;
19887;SDS011;10106;51.332;12.336;2023-01-08T04:30:48;2.30;;;2.13;;
19887;SDS011;10106;51.332;12.336;2023-01-08T04:33:15;2.83;;;2.10;;
19887;SDS011;10106;51.332;12.336;2023-01-08T04:35:41;2.57;;;2.20;;
19887;SDS011;10106;51.332;12.336;2023-01-08T04:38:06;2.87;;;2.40;;
19887;SDS011;10106;51.332;12.336;2023-01-08T04:40:32;2.57;;;2.30;;
19887;SDS011;10106;51.332;12.336;2023-01-08T04:42:58;4.50;;;2.60;;
19887;SDS011;10106;51.332;12.336;2023-01-08T04:45:24;2.17;;;1.97;;
19887;SDS011;10106;51.332;12.336;2023-01-08T04:47:59;2.33;;;2.13;;
19887;SDS011;10106;51.332;12.336;2023-01-08T04:50:25;3.20;;;2.30;;
19887;SDS011;10106;51.332;12.336;2023-01-08T04:52:51;3.20;;;2.70;;
19887;SDS011;10106;51.332;12.336;2023-01-08T04:55:17;2.80;;;2.27;;
19887;SDS011;10106;51.332;12.336;2023-01-08T04:57:43;3.10;;;2.33;;
19887;SDS011;10106;51.332;12.336;2023-01-08T05:00:09;3.30;;;2.53;;
19887;SDS011;10106;51.332;12.336;2023-01-08T05:02:35;2.90;;;2.30;;
19887;SDS011;10106;51.332;12.336;2023-01-08T05:05:01;2.50;;;2.13;;
19887;SDS011;10106;51.332;12.336;2023-01-08T05:07:27;4.47;;;2.87;;
19887;SDS011;10106;51.332;12.336;2023-01-08T05:09:52;3.73;;;2.27;;
19887;SDS011;10106;51.332;12.336;2023-01-08T05:12:18;3.60;;;2.43;;
19887;SDS011;10106;51.332;12.336;2023-01-08T05:14:44;3.47;;;2.53;;
19887;SDS011;10106;51.332;12.336;2023-01-08T05:17:09;2.20;;;2.00;;
19887;SDS011;10106;51.332;12.336;2023-01-08T05:19:35;6.20;;;2.80;;
19887;SDS011;10106;51.332;12.336;2023-01-08T05:22:01;3.30;;;2.17;;
19887;SDS011;10106;51.332;12.336;2023-01-08T05:24:26;3.60;;;2.30;;
19887;SDS011;10106;51.332;12.336;2023-01-08T05:26:52;3.83;;;2.53;;
19887;SDS011;10106;51.332;12.336;2023-01-08T05:29:18;3.33;;;2.37;;
19887;SDS011;10106;51.332;12.336;2023-01-08T05:31:44;3.03;;;2.50;;
19887;SDS011;10106;51.332;12.336;2023-01-08T05:34:09;3.20;;;2.90;;
19887;SDS011;10106;51.332;12.336;2023-01-08T05:36:35;1.73;;;1.60;;
19887;SDS011;10106;51.332;12.336;2023-01-08T05:39:01;2.87;;;2.27;;
19887;SDS011;10106;51.332;12.336;2023-01-08T05:41:27;1.93;;;1.80;;
19887;SDS011;10106;51.332;12.336;2023-01-08T05:43:53;3.90;;;2.50;;
19887;SDS011;10106;51.332;12.336;2023-01-08T05:46:18;2.30;;;2.10;;
19887;SDS011;10106;51.332;12.336;2023-01-08T05:48:44;1.93;;;1.70;;
19887;SDS011;10106;51.332;12.336;2023-01-08T05:51:09;2.30;;;2.10;;
19887;SDS011;10106;51.332;12.336;2023-01-08T05:53:35;4.20;;;2.20;;
19887;SDS011;10106;51.332;12.336;2023-01-08T05:56:02;3.73;;;2.10;;
19887;SDS011;10106;51.332;12.336;2023-01-08T05:58:29;1.80;;;1.70;;
19887;SDS011;10106;51.332;12.336;2023-01-08T06:06:06;2.53;;;2.13;;
19887;SDS011;10106;51.332;12.336;2023-01-08T06:08:34;2.47;;;2.27;;
19887;SDS011;10106;51.332;12.336;2023-01-08T06:11:00;2.27;;;2.07;;
19887;SDS011;10106;51.332;12.336;2023-01-08T06:13:28;3.30;;;2.20;;
19887;SDS011;10106;51.332;12.336;2023-01-08T06:15:53;3.80;;;2.20;;
19887;SDS011;10106;51.332;12.336;2023-01-08T06:18:19;2.13;;;1.93;;
19887;SDS011;10106;51.332;12.336;2023-01-08T06:20:45;2.03;;;1.83;;
19887;SDS011;10106;51.332;12.336;2023-01-08T06:23:11;3.57;;;2.27;;
19887;SDS011;10106;51.332;12.336;2023-01-08T06:25:36;4.57;;;2.37;;
19887;SDS011;10106;51.332;12.336;2023-01-08T06:28:02;4.03;;;2.07;;
19887;SDS011;10106;51.332;12.336;2023-01-08T06:30:28;2.53;;;2.33;;
19887;SDS011;10106;51.332;12.336;2023-01-08T06:32:55;2.40;;;2.20;;
19887;SDS011;10106;51.332;12.336;2023-01-08T06:35:21;4.20;;;2.30;;
19887;SDS011;10106;51.332;12.336;2023-01-08T06:37:47;2.43;;;2.23;;
19887;SDS011;10106;51.332;12.336;2023-01-08T06:40:12;5.10;;;2.77;;
19887;SDS011;10106;51.332;12.336;2023-01-08T06:42:38;4.53;;;2.57;;
19887;SDS011;10106;51.332;12.336;2023-01-08T06:45:04;3.80;;;2.60;;
19887;SDS011;10106;51.332;12.336;2023-01-08T06:47:31;4.00;;;2.30;;
19887;SDS011;10106;51.332;12.336;2023-01-08T06:49:57;3.03;;;2.27;;
19887;SDS011;10106;51.332;12.336;2023-01-08T06:52:23;2.50;;;2.30;;
19887;SDS011;10106;51.332;12.336;2023-01-08T06:54:49;2.80;;;2.13;;
19887;SDS011;10106;51.332;12.336;2023-01-08T06:57:15;2.37;;;2.17;;
19887;SDS011;10106;51.332;12.336;2023-01-08T06:59:40;3.10;;;2.37;;
19887;SDS011;10106;51.332;12.336;2023-01-08T07:02:09;5.10;;;2.50;;
19887;SDS011;10106;51.332;12.336;2023-01-08T07:04:38;5.70;;;2.73;;
19887;SDS011;10106;51.332;12.336;2023-01-08T07:07:03;4.53;;;3.00;;
19887;SDS011;10106;51.332;12.336;2023-01-08T07:09:29;3.30;;;3.00;;
19887;SDS011;10106;51.332;12.336;2023-01-08T07:11:54;6.50;;;2.97;;
19887;SDS011;10106;51.332;12.336;2023-01-08T07:14:20;3.93;;;2.83;;
19887;SDS011;10106;51.332;12.336;2023-01-08T07:16:46;2.37;;;2.00;;
19887;SDS011;10106;51.332;12.336;2023-01-08T07:19:11;2.17;;;2.07;;
19887;SDS011;10106;51.332;12.336;2023-01-08T07:21:37;3.53;;;2.33;;
19887;SDS011;10106;51.332;12.336;2023-01-08T07:24:03;4.07;;;2.60;;
19887;SDS011;10106;51.332;12.336;2023-01-08T07:26:30;4.20;;;2.53;;
19887;SDS011;10106;51.332;12.336;2023-01-08T07:28:56;2.43;;;2.27;;
19887;SDS011;10106;51.332;12.336;2023-01-08T07:31:21;3.47;;;2.37;;
19887;SDS011;10106;51.332;12.336;2023-01-08T07:33:47;5.93;;;3.40;;
19887;SDS011;10106;51.332;12.336;2023-01-08T07:36:13;3.23;;;2.93;;
19887;SDS011;10106;51.332;12.336;2023-01-08T07:38:39;4.30;;;2.80;;
19887;SDS011;10106;51.332;12.336;2023-01-08T07:41:06;3.27;;;2.73;;
19887;SDS011;10106;51.332;12.336;2023-01-08T07:43:31;5.77;;;3.30;;
19887;SDS011;10106;51.332;12.336;2023-01-08T07:46:00;4.13;;;2.97;;
19887;SDS011;10106;51.332;12.336;2023-01-08T07:48:27;7.40;;;3.13;;
19887;SDS011;10106;51.332;12.336;2023-01-08T07:50:53;5.53;;;2.87;;
19887;SDS011;10106;51.332;12.336;2023-01-08T07:53:24;8.60;;;3.20;;
19887;SDS011;10106;51.332;12.336;2023-01-08T07:55:49;4.10;;;2.77;;
19887;SDS011;10106;51.332;12.336;2023-01-08T07:58:15;7.23;;;2.90;;
19887;SDS011;10106;51.332;12.336;2023-01-08T08:00:41;4.30;;;2.70;;
19887;SDS011;10106;51.332;12.336;2023-01-08T08:03:07;3.10;;;2.67;;
19887;SDS011;10106;51.332;12.336;2023-01-08T08:05:35;3.83;;;3.17;;
19887;SDS011;10106;51.332;12.336;2023-01-08T08:08:01;3.47;;;2.60;;
19887;SDS011;10106;51.332;12.336;2023-01-08T08:10:32;3.70;;;2.37;;
19887;SDS011;10106;51.332;12.336;2023-01-08T08:12:58;2.97;;;2.63;;
19887;SDS011;10106;51.332;12.336;2023-01-08T08:15:23;5.27;;;2.70;;
19887;SDS011;10106;51.332;12.336;2023-01-08T08:17:49;3.17;;;2.60;;
19887;SDS011;10106;51.332;12.336;2023-01-08T08:20:15;2.63;;;2.40;;
19887;SDS011;10106;51.332;12.336;2023-01-08T08:22:41;3.93;;;2.87;;
19887;SDS011;10106;51.332;12.336;2023-01-08T08:25:06;3.43;;;2.13;;
19887;SDS011;10106;51.332;12.336;2023-01-08T08:27:33;3.13;;;2.83;;
19887;SDS011;10106;51.332;12.336;2023-01-08T08:29:58;4.40;;;2.97;;
19887;SDS011;10106;51.332;12.336;2023-01-08T08:32:24;3.40;;;2.73;;
19887;SDS011;10106;51.332;12.336;2023-01-08T08:34:50;4.63;;;3.27;;
19887;SDS011;10106;51.332;12.336;2023-01-08T08:37:15;5.10;;;4.23;;
19887;SDS011;10106;51.332;12.336;2023-01-08T08:39:41;4.30;;;3.43;;
19887;SDS011;10106;51.332;12.336;2023-01-08T08:42:07;3.57;;;3.07;;
19887;SDS011;10106;51.332;12.336;2023-01-08T08:44:32;4.33;;;2.83;;
19887;SDS011;10106;51.332;12.336;2023-01-08T08:46:58;3.00;;;2.80;;
19887;SDS011;10106;51.332;12.336;2023-01-08T08:49:24;8.80;;;2.47;;
19887;SDS011;10106;51.332;12.336;2023-01-08T08:51:49;7.57;;;2.87;;
19887;SDS011;10106;51.332;12.336;2023-01-08T08:54:17;4.40;;;2.80;;
19887;SDS011;10106;51.332;12.336;2023-01-08T08:56:42;3.33;;;2.70;;
19887;SDS011;10106;51.332;12.336;2023-01-08T08:59:08;5.53;;;2.83;;
19887;SDS011;10106;51.332;12.336;2023-01-08T09:01:37;3.03;;;2.60;;
19887;SDS011;10106;51.332;12.336;2023-01-08T09:04:02;7.00;;;2.70;;
19887;SDS011;10106;51.332;12.336;2023-01-08T09:06:28;4.20;;;3.00;;
19887;SDS011;10106;51.332;12.336;2023-01-08T09:08:54;4.57;;;3.10;;
19887;SDS011;10106;51.332;12.336;2023-01-08T09:11:20;5.47;;;2.47;;
19887;SDS011;10106;51.332;12.336;2023-01-08T09:13:46;4.80;;;3.37;;
19887;SDS011;10106;51.332;12.336;2023-01-08T09:16:11;3.47;;;2.83;;
19887;SDS011;10106;51.332;12.336;2023-01-08T09:18:37;6.60;;;3.07;;
19887;SDS011;10106;51.332;12.336;2023-01-08T09:21:03;5.83;;;2.73;;
19887;SDS011;10106;51.332;12.336;2023-01-08T09:23:30;3.57;;;3.13;;
19887;SDS011;10106;51.332;12.336;2023-01-08T09:26:02;4.20;;;2.87;;
19887;SDS011;10106;51.332;12.336;2023-01-08T09:28:28;3.20;;;2.57;;
19887;SDS011;10106;51.332;12.336;2023-01-08T09:30:54;8.07;;;4.07;;
19887;SDS011;10106;51.332;12.336;2023-01-08T09:33:20;4.13;;;3.10;;
19887;SDS011;10106;51.332;12.336;2023-01-08T09:35:46;6.37;;;3.87;;
19887;SDS011;10106;51.332;12.336;2023-01-08T09:38:11;5.30;;;2.90;;
19887;SDS011;10106;51.332;12.336;2023-01-08T09:40:41;5.53;;;3.03;;
19887;SDS011;10106;51.332;12.336;2023-01-08T09:43:16;4.23;;;2.70;;
19887;SDS011;10106;51.332;12.336;2023-01-08T09:45:46;3.33;;;3.03;;
19887;SDS011;10106;51.332;12.336;2023-01-08T09:48:15;4.73;;;3.73;;
19887;SDS011;10106;51.332;12.336;2023-01-08T09:50:45;5.93;;;3.27;;
19887;SDS011;10106;51.332;12.336;2023-01-08T09:53:12;3.27;;;2.97;;
19887;SDS011;10106;51.332;12.336;2023-01-08T09:55:39;4.77;;;3.30;;
19887;SDS011;10106;51.332;12.336;2023-01-08T09:58:12;4.73;;;2.73;;
19887;SDS011;10106;51.332;12.336;2023-01-08T10:01:04;5.07;;;3.37;;
19887;SDS011;10106;51.332;12.336;2023-01-08T10:03:37;9.10;;;3.60;;
19887;SDS011;10106;51.332;12.336;2023-01-08T10:06:10;4.57;;;3.30;;
19887;SDS011;10106;51.332;12.336;2023-01-08T10:08:37;3.53;;;3.23;;
19887;SDS011;10106;51.332;12.336;2023-01-08T10:11:04;3.93;;;3.43;;
19887;SDS011;10106;51.332;12.336;2023-01-08T10:13:31;3.47;;;3.10;;
19887;SDS011;10106;51.332;12.336;2023-01-08T10:15:59;3.53;;;2.83;;
19887;SDS011;10106;51.332;12.336;2023-01-08T10:18:25;6.47;;;3.17;;
19887;SDS011;10106;51.332;12.336;2023-01-08T10:20:52;5.80;;;2.80;;
19887;SDS011;10106;51.332;12.336;2023-01-08T10:23:19;4.83;;;3.47;;
19887;SDS011;10106;51.332;12.336;2023-01-08T10:28:17;3.63;;;2.77;;
19887;SDS011;10106;51.332;12.336;2023-01-08T10:30:52;5.00;;;3.17;;
19887;SDS011;10106;51.332;12.336;2023-01-08T10:33:38;6.17;;;3.57;;
19887;SDS011;10106;51.332;12.336;2023-01-08T10:36:06;6.60;;;3.60;;
19887;SDS011;10106;51.332;12.336;2023-01-08T10:38:38;4.47;;;2.57;;
19887;SDS011;10106;51.332;12.336;2023-01-08T10:41:16;6.20;;;3.30;;
19887;SDS011;10106;51.332;12.336;2023-01-08T10:46:23;6.23;;;3.40;;
19887;SDS011;10106;51.332;12.336;2023-01-08T10:51:58;3.27;;;2.93;;
19887;SDS011;10106;51.332;12.336;2023-01-08T10:54:32;5.20;;;3.37;;
19887;SDS011;10106;51.332;12.336;2023-01-08T10:57:16;3.90;;;3.00;;
19887;SDS011;10106;51.332;12.336;2023-01-08T10:59:48;4.57;;;3.40;;
19887;SDS011;10106;51.332;12.336;2023-01-08T11:02:20;4.97;;;3.20;;
19887;SDS011;10106;51.332;12.336;2023-01-08T11:04:49;7.50;;;3.63;;
19887;SDS011;10106;51.332;12.336;2023-01-08T11:07:20;3.70;;;2.90;;
19887;SDS011;10106;51.332;12.336;2023-01-08T11:09:48;4.80;;;3.23;;
19887;SDS011;10106;51.332;12.336;2023-01-08T11:15:02;6.87;;;4.77;;
19887;SDS011;10106;51.332;12.336;2023-01-08T11:17:31;8.50;;;3.93;;
19887;SDS011;10106;51.332;12.336;2023-01-08T11:23:05;6.03;;;3.40;;
19887;SDS011;10106;51.332;12.336;2023-01-08T11:28:50;5.17;;;3.13;;
19887;SDS011;10106;51.332;12.336;2023-01-08T11:31:40;4.80;;;3.60;;
19887;SDS011;10106;51.332;12.336;2023-01-08T11:34:14;4.93;;;3.67;;
19887;SDS011;10106;51.332;12.336;2023-01-08T11:36:52;5.50;;;3.47;;
19887;SDS011;10106;51.332;12.336;2023-01-08T11:39:23;7.20;;;4.00;;
19887;SDS011;10106;51.332;12.336;2023-01-08T11:44:46;6.90;;;4.20;;
19887;SDS011;10106;51.332;12.336;2023-01-08T11:47:48;8.10;;;4.43;;
19887;SDS011;10106;51.332;12.336;2023-01-08T11:53:57;8.43;;;5.10;;
19887;SDS011;10106;51.332;12.336;2023-01-08T12:06:59;6.50;;;3.70;;
19887;SDS011;10106;51.332;12.336;2023-01-08T12:09:41;8.10;;;3.77;;
19887;SDS011;10106;51.332;12.336;2023-01-08T12:12:23;10.93;;;4.63;;
19887;SDS011;10106;51.332;12.336;2023-01-08T12:20:18;5.80;;;3.67;;
19887;SDS011;10106;51.332;12.336;2023-01-08T12:22:46;6.50;;;3.00;;
19887;SDS011;10106;51.332;12.336;2023-01-08T12:36:08;5.33;;;3.67;;
19887;SDS011;10106;51.332;12.336;2023-01-08T12:38:39;6.73;;;4.27;;
19887;SDS011;10106;51.332;12.336;2023-01-08T12:41:12;6.97;;;3.90;;
19887;SDS011;10106;51.332;12.336;2023-01-08T12:46:29;4.73;;;3.50;;
19887;SDS011;10106;51.332;12.336;2023-01-08T12:48:57;8.90;;;4.07;;
19887;SDS011;10106;51.332;12.336;2023-01-08T12:51:30;5.40;;;3.13;;
19887;SDS011;10106;51.332;12.336;2023-01-08T12:56:53;8.57;;;4.37;;
19887;SDS011;10106;51.332;12.336;2023-01-08T13:02:45;4.43;;;2.93;;
19887;SDS011;10106;51.332;12.336;2023-01-08T13:08:05;6.70;;;3.40;;
19887;SDS011;10106;51.332;12.336;2023-01-08T13:10:49;3.70;;;2.80;;
19887;SDS011;10106;51.332;12.336;2023-01-08T13:13:31;6.23;;;3.60;;
19887;SDS011;10106;51.332;12.336;2023-01-08T13:19:00;5.60;;;3.50;;
19887;SDS011;10106;51.332;12.336;2023-01-08T13:21:29;3.67;;;2.53;;
19887;SDS011;10106;51.332;12.336;2023-01-08T13:24:02;3.13;;;2.40;;
19887;SDS011;10106;51.332;12.336;2023-01-08T13:26:29;4.70;;;2.87;;
19887;SDS011;10106;51.332;12.336;2023-01-08T13:29:20;4.00;;;2.70;;
19887;SDS011;10106;51.332;12.336;2023-01-08T13:31:49;2.70;;;2.13;;
19887;SDS011;10106;51.332;12.336;2023-01-08T13:34:19;2.37;;;2.20;;
19887;SDS011;10106;51.332;12.336;2023-01-08T13:37:06;3.40;;;3.10;;
19887;SDS011;10106;51.332;12.336;2023-01-08T13:39:34;4.97;;;2.83;;
19887;SDS011;10106;51.332;12.336;2023-01-08T13:44:38;4.40;;;3.10;;
19887;SDS011;10106;51.332;12.336;2023-01-08T13:50:15;3.20;;;2.17;;
19887;SDS011;10106;51.332;12.336;2023-01-08T13:52:46;4.97;;;2.80;;
19887;SDS011;10106;51.332;12.336;2023-01-08T13:55:20;2.40;;;2.20;;
19887;SDS011;10106;51.332;12.336;2023-01-08T13:57:55;6.37;;;2.83;;
19887;SDS011;10106;51.332;12.336;2023-01-08T14:00:30;3.60;;;2.53;;
19887;SDS011;10106;51.332;12.336;2023-01-08T14:08:59;2.53;;;2.23;;
19887;SDS011;10106;51.332;12.336;2023-01-08T14:11:30;2.40;;;1.70;;
19887;SDS011;10106;51.332;12.336;2023-01-08T14:14:02;2.47;;;2.03;;
19887;SDS011;10106;51.332;12.336;2023-01-08T14:16:28;2.80;;;2.60;;
19887;SDS011;10106;51.332;12.336;2023-01-08T14:18:54;1.83;;;1.67;;
19887;SDS011;10106;51.332;12.336;2023-01-08T14:21:25;2.30;;;1.93;;
19887;SDS011;10106;51.332;12.336;2023-01-08T14:23:51;3.43;;;1.97;;
19887;SDS011;10106;51.332;12.336;2023-01-08T14:28:57;1.90;;;1.80;;
19887;SDS011;10106;51.332;12.336;2023-01-08T14:31:23;1.90;;;1.63;;
19887;SDS011;10106;51.332;12.336;2023-01-08T14:33:50;1.90;;;1.80;;
19887;SDS011;10106;51.332;12.336;2023-01-08T14:36:18;3.03;;;2.17;;
19887;SDS011;10106;51.332;12.336;2023-01-08T14:38:44;2.20;;;2.03;;
19887;SDS011;10106;51.332;12.336;2023-01-08T14:41:14;3.03;;;2.10;;
19887;SDS011;10106;51.332;12.336;2023-01-08T14:43:49;2.70;;;1.57;;
19887;SDS011;10106;51.332;12.336;2023-01-08T14:46:33;3.07;;;2.57;;
19887;SDS011;10106;51.332;12.336;2023-01-08T14:48:58;2.07;;;1.53;;
19887;SDS011;10106;51.332;12.336;2023-01-08T14:51:25;2.40;;;2.13;;
19887;SDS011;10106;51.332;12.336;2023-01-08T14:53:58;1.83;;;1.73;;
19887;SDS011;10106;51.332;12.336;2023-01-08T14:56:32;2.30;;;2.10;;
19887;SDS011;10106;51.332;12.336;2023-01-08T14:59:04;2.23;;;1.53;;
19887;SDS011;10106;51.332;12.336;2023-01-08T15:01:32;5.00;;;2.30;;
19887;SDS011;10106;51.332;12.336;2023-01-08T15:04:05;2.40;;;2.20;;
19887;SDS011;10106;51.332;12.336;2023-01-08T15:06:37;2.37;;;1.80;;
19887;SDS011;10106;51.332;12.336;2023-01-08T15:09:12;3.73;;;1.90;;
19887;SDS011;10106;51.332;12.336;2023-01-08T15:11:53;3.40;;;2.30;;
19887;SDS011;10106;51.332;12.336;2023-01-08T15:14:22;2.67;;;2.47;;
19887;SDS011;10106;51.332;12.336;2023-01-08T15:16:49;8.03;;;3.93;;
19887;SDS011;10106;51.332;12.336;2023-01-08T15:19:21;12.70;;;10.40;;
19887;SDS011;10106;51.332;12.336;2023-01-08T15:21:53;4.10;;;3.37;;
19887;SDS011;10106;51.332;12.336;2023-01-08T15:24:26;9.33;;;5.70;;
19887;SDS011;10106;51.332;12.336;2023-01-08T15:26:53;4.93;;;2.83;;
19887;SDS011;10106;51.332;12.336;2023-01-08T15:29:27;5.10;;;3.63;;
19887;SDS011;10106;51.332;12.336;2023-01-08T15:32:07;6.40;;;4.67;;
19887;SDS011;10106;51.332;12.336;2023-01-08T15:34:42;24.10;;;12.25;;
19887;SDS011;10106;51.332;12.336;2023-01-08T15:37:09;31.02;;;12.75;;
19887;SDS011;10106;51.332;12.336;2023-01-08T15:39:35;4.33;;;3.50;;
19887;SDS011;10106;51.332;12.336;2023-01-08T15:45:08;5.27;;;3.67;;
19887;SDS011;10106;51.332;12.336;2023-01-08T15:47:36;7.00;;;4.70;;
19887;SDS011;10106;51.332;12.336;2023-01-08T15:50:02;12.20;;;6.20;;
19887;SDS011;10106;51.332;12.336;2023-01-08T15:52:28;11.47;;;6.37;;
19887;SDS011;10106;51.332;12.336;2023-01-08T15:54:58;3.43;;;2.73;;
19887;SDS011;10106;51.332;12.336;2023-01-08T15:57:24;7.00;;;3.63;;
19887;SDS011;10106;51.332;12.336;2023-01-08T15:59:51;5.10;;;3.67;;
19887;SDS011;10106;51.332;12.336;2023-01-08T16:02:17;5.93;;;3.87;;
19887;SDS011;10106;51.332;12.336;2023-01-08T16:04:43;5.93;;;3.60;;
19887;SDS011;10106;51.332;12.336;2023-01-08T16:07:08;5.00;;;2.60;;
19887;SDS011;10106;51.332;12.336;2023-01-08T16:09:34;3.43;;;3.00;;
19887;SDS011;10106;51.332;12.336;2023-01-08T16:12:00;4.50;;;2.57;;
19887;SDS011;10106;51.332;12.336;2023-01-08T16:14:26;3.20;;;2.10;;
19887;SDS011;10106;51.332;12.336;2023-01-08T16:16:52;5.93;;;4.10;;
19887;SDS011;10106;51.332;12.336;2023-01-08T16:19:17;4.60;;;3.03;;
19887;SDS011;10106;51.332;12.336;2023-01-08T16:21:43;5.33;;;3.43;;
19887;SDS011;10106;51.332;12.336;2023-01-08T16:24:11;7.47;;;5.10;;
19887;SDS011;10106;51.332;12.336;2023-01-08T16:26:37;13.90;;;8.23;;
19887;SDS011;10106;51.332;12.336;2023-01-08T16:29:03;8.77;;;5.73;;
19887;SDS011;10106;51.332;12.336;2023-01-08T16:31:29;19.53;;;10.13;;
19887;SDS011;10106;51.332;12.336;2023-01-08T16:33:59;9.77;;;5.00;;